createdAt,value
2019-01-27T00:00:37.947Z,90.62
2019-01-27T00:01:42.079Z,90.68
2019-01-27T00:02:46.233Z,90.66
2019-01-27T00:03:50.438Z,90.67
2019-01-27T00:04:54.606Z,90.67
2019-01-27T00:05:58.739Z,90.63
2019-01-27T00:07:02.924Z,90.64
2019-01-27T00:08:13.276Z,90.74
2019-01-27T00:09:11.222Z,90.73
2019-01-27T00:10:15.437Z,90.69
2019-01-27T00:11:19.610Z,90.68
2019-01-27T00:12:23.790Z,90.67
2019-01-27T00:13:27.980Z,90.68
2019-01-27T00:14:32.164Z,90.67
2019-01-27T00:15:36.373Z,90.67
2019-01-27T00:16:40.544Z,90.71
2019-01-27T00:17:44.706Z,90.72
2019-01-27T00:18:48.783Z,90.66
2019-01-27T00:19:52.890Z,90.63
2019-01-27T00:20:57.168Z,90.62
2019-01-27T00:22:01.324Z,90.60
2019-01-27T00:23:05.401Z,90.65
2019-01-27T00:24:09.532Z,90.69
2019-01-27T00:25:13.685Z,90.67
2019-01-27T00:26:17.938Z,90.67
2019-01-27T00:27:22.016Z,90.65
2019-01-27T00:28:26.256Z,90.66
2019-01-27T00:29:30.388Z,90.66
2019-01-27T00:30:34.575Z,90.66
2019-01-27T00:31:38.669Z,90.75
2019-01-27T00:32:42.791Z,90.80
2019-01-27T00:33:46.993Z,90.74
2019-01-27T00:34:51.047Z,90.78
2019-01-27T00:35:55.332Z,90.78
2019-01-27T00:36:59.427Z,90.84
2019-01-27T00:38:04.441Z,90.80
2019-01-27T00:39:08.295Z,90.88
2019-01-27T00:40:12.482Z,90.85
2019-01-27T00:41:16.685Z,90.85
2019-01-27T00:42:20.720Z,90.96
2019-01-27T00:43:24.998Z,90.96
2019-01-27T00:44:29.153Z,90.92
2019-01-27T00:45:33.272Z,90.91
2019-01-27T00:46:38.288Z,90.86
2019-01-27T00:47:42.035Z,90.85
2019-01-27T00:48:46.177Z,90.84
2019-01-27T00:49:50.296Z,90.84
2019-01-27T00:50:54.458Z,90.83
2019-01-27T00:51:58.558Z,90.87
2019-01-27T00:53:02.696Z,90.87
2019-01-27T00:54:06.949Z,90.82
2019-01-27T00:55:11.125Z,90.79
2019-01-27T00:56:16.114Z,90.85
2019-01-27T00:57:19.976Z,90.80
2019-01-27T00:58:24.136Z,90.76
2019-01-27T00:59:28.327Z,90.78
2019-01-27T01:00:32.445Z,90.74
2019-01-27T01:01:36.738Z,90.74
2019-01-27T01:02:40.906Z,90.70
2019-01-27T01:03:45.087Z,90.74
2019-01-27T01:04:49.263Z,90.88
2019-01-27T01:05:53.502Z,90.85
2019-01-27T01:06:57.569Z,90.80
2019-01-27T01:08:01.813Z,90.86
2019-01-27T01:09:05.899Z,90.88
2019-01-27T01:10:10.018Z,91.01
2019-01-27T01:11:14.272Z,91.02
2019-01-27T01:12:18.433Z,91.00
2019-01-27T01:13:22.508Z,91.06
2019-01-27T01:14:26.743Z,91.02
2019-01-27T01:15:30.944Z,91.03
2019-01-27T01:16:35.169Z,91.02
2019-01-27T01:17:39.229Z,91.03
2019-01-27T01:18:43.456Z,90.99
2019-01-27T01:19:47.559Z,90.92
2019-01-27T01:20:51.669Z,90.93
2019-01-27T01:21:55.957Z,90.92
2019-01-27T01:23:00.052Z,90.93
2019-01-27T01:24:04.285Z,91.04
2019-01-27T01:25:08.348Z,91.01
2019-01-27T01:26:12.534Z,91.06
2019-01-27T01:27:17.553Z,91.07
2019-01-27T01:28:21.372Z,91.25
2019-01-27T01:30:34.330Z,91.19
2019-01-27T01:31:39.370Z,91.21
2019-01-27T01:32:43.102Z,91.17
2019-01-27T01:33:47.346Z,91.22
2019-01-27T01:34:51.399Z,91.28
2019-01-27T01:35:55.656Z,91.31
2019-01-27T01:36:59.859Z,91.22
2019-01-27T01:38:04.037Z,91.18
2019-01-27T01:39:08.214Z,91.14
2019-01-27T01:40:12.341Z,91.16
2019-01-27T01:41:16.425Z,91.22
2019-01-27T01:42:20.573Z,91.15
2019-01-27T01:43:24.781Z,91.08
2019-01-27T01:44:28.872Z,91.01
2019-01-27T01:45:33.010Z,91.23
2019-01-27T01:46:38.043Z,91.28
2019-01-27T01:47:41.870Z,91.41
2019-01-27T01:48:46.034Z,91.58
2019-01-27T01:49:50.099Z,91.69
2019-01-27T01:50:54.332Z,91.57
2019-01-27T01:51:58.551Z,91.53
2019-01-27T01:53:02.731Z,91.55
2019-01-27T01:54:07.699Z,91.54
2019-01-27T01:55:11.548Z,91.47
2019-01-27T01:56:15.645Z,91.45
2019-01-27T01:57:19.891Z,91.33
2019-01-27T01:58:24.051Z,91.38
2019-01-27T01:59:28.222Z,91.33
2019-01-27T02:00:32.390Z,91.40
2019-01-27T02:01:36.456Z,91.32
2019-01-27T02:02:40.701Z,91.33
2019-01-27T02:03:44.890Z,91.32
2019-01-27T02:04:49.021Z,91.36
2019-01-27T02:05:53.068Z,91.37
2019-01-27T02:06:57.333Z,91.29
2019-01-27T02:08:01.533Z,91.33
2019-01-27T02:09:05.578Z,91.37
2019-01-27T02:10:09.821Z,91.47
2019-01-27T02:11:13.983Z,91.50
2019-01-27T02:12:18.095Z,91.48
2019-01-27T02:13:23.093Z,91.50
2019-01-27T02:14:26.883Z,91.48
2019-01-27T02:15:31.119Z,91.41
2019-01-27T02:16:35.310Z,91.60
2019-01-27T02:17:39.526Z,91.60
2019-01-27T02:18:43.697Z,91.64
2019-01-27T02:19:47.897Z,91.73
2019-01-27T02:20:51.922Z,91.72
2019-01-27T02:21:56.187Z,91.89
2019-01-27T02:23:00.397Z,91.81
2019-01-27T02:24:04.528Z,91.83
2019-01-27T02:25:08.687Z,91.80
2019-01-27T02:26:12.859Z,91.86
2019-01-27T02:27:17.040Z,91.89
2019-01-27T02:28:21.272Z,91.95
2019-01-27T02:29:25.440Z,92.05
2019-01-27T02:30:29.508Z,92.04
2019-01-27T02:31:33.747Z,92.11
2019-01-27T02:32:37.922Z,92.04
2019-01-27T02:33:42.145Z,92.07
2019-01-27T02:34:46.322Z,92.02
2019-01-27T02:35:50.428Z,91.97
2019-01-27T02:36:54.569Z,92.04
2019-01-27T02:37:58.797Z,92.05
2019-01-27T02:39:02.990Z,92.11
2019-01-27T02:40:07.186Z,92.11
2019-01-27T02:41:11.366Z,92.07
2019-01-27T02:42:16.329Z,92.08
2019-01-27T02:43:20.049Z,92.12
2019-01-27T02:44:24.290Z,92.18
2019-01-27T02:45:28.487Z,92.13
2019-01-27T02:46:32.559Z,92.08
2019-01-27T02:47:36.835Z,92.01
2019-01-27T02:48:41.828Z,91.99
2019-01-27T02:49:45.579Z,91.97
2019-01-27T02:50:49.763Z,91.90
2019-01-27T02:51:53.831Z,92.00
2019-01-27T02:52:58.099Z,91.99
2019-01-27T02:54:02.251Z,91.97
2019-01-27T02:55:06.352Z,92.09
2019-01-27T02:56:10.503Z,92.03
2019-01-27T02:57:14.704Z,91.99
2019-01-27T02:58:18.911Z,91.99
2019-01-27T02:59:23.086Z,91.83
2019-01-27T03:00:27.156Z,91.86
2019-01-27T03:01:31.395Z,91.93
2019-01-27T03:02:35.595Z,91.88
2019-01-27T03:03:39.773Z,91.96
2019-01-27T03:04:43.977Z,91.96
2019-01-27T03:05:48.043Z,91.91
2019-01-27T03:06:52.249Z,91.89
2019-01-27T03:07:59.371Z,91.88
2019-01-27T03:09:02.641Z,91.84
2019-01-27T03:10:06.812Z,91.86
2019-01-27T03:11:10.971Z,91.92
2019-01-27T03:12:15.047Z,91.89
2019-01-27T03:13:19.268Z,91.94
2019-01-27T03:14:23.461Z,91.94
2019-01-27T03:15:27.633Z,91.94
2019-01-27T03:16:31.833Z,91.91
2019-01-27T03:17:36.002Z,91.91
2019-01-27T03:18:40.222Z,91.84
2019-01-27T03:19:44.401Z,91.82
2019-01-27T03:20:48.504Z,91.84
2019-01-27T03:21:52.618Z,91.92
2019-01-27T03:22:56.889Z,91.91
2019-01-27T03:24:00.943Z,91.88
2019-01-27T03:25:05.156Z,91.84
2019-01-27T03:26:09.342Z,91.88
2019-01-27T03:27:13.517Z,91.90
2019-01-27T03:28:17.741Z,91.88
2019-01-27T03:29:21.942Z,91.86
2019-01-27T03:30:26.143Z,91.84
2019-01-27T03:31:30.333Z,91.77
2019-01-27T03:32:34.507Z,91.81
2019-01-27T03:33:38.701Z,91.71
2019-01-27T03:34:42.907Z,91.70
2019-01-27T03:35:47.124Z,91.73
2019-01-27T03:36:51.227Z,91.72
2019-01-27T03:37:55.411Z,91.79
2019-01-27T03:38:59.651Z,91.74
2019-01-27T03:40:03.799Z,91.79
2019-01-27T03:41:08.007Z,91.84
2019-01-27T03:42:12.148Z,91.80
2019-01-27T03:43:16.165Z,91.79
2019-01-27T03:44:20.414Z,91.80
2019-01-27T03:45:24.609Z,91.80
2019-01-27T03:46:28.820Z,91.80
2019-01-27T03:47:32.979Z,91.86
2019-01-27T03:48:37.172Z,91.87
2019-01-27T03:49:41.377Z,91.90
2019-01-27T03:50:45.419Z,91.89
2019-01-27T03:51:49.683Z,91.88
2019-01-27T03:52:53.923Z,91.87
2019-01-27T03:53:58.091Z,91.89
2019-01-27T03:55:02.331Z,91.88
2019-01-27T03:56:06.446Z,91.81
2019-01-27T03:57:10.622Z,91.81
2019-01-27T03:58:14.844Z,91.81
2019-01-27T03:59:18.920Z,91.78
2019-01-27T04:00:23.177Z,91.78
2019-01-27T04:01:27.384Z,91.79
2019-01-27T04:02:31.462Z,91.75
2019-01-27T04:03:36.475Z,91.72
2019-01-27T04:04:40.197Z,91.68
2019-01-27T04:05:44.430Z,91.70
2019-01-27T04:06:48.655Z,91.67
2019-01-27T04:07:52.699Z,91.69
2019-01-27T04:08:56.848Z,91.74
2019-01-27T04:10:01.088Z,91.74
2019-01-27T04:11:05.266Z,91.69
2019-01-27T04:12:10.281Z,91.69
2019-01-27T04:13:14.108Z,91.67
2019-01-27T04:14:19.045Z,91.64
2019-01-27T04:15:22.881Z,91.59
2019-01-27T04:16:26.956Z,91.60
2019-01-27T04:17:31.219Z,91.58
2019-01-27T04:18:35.404Z,91.52
2019-01-27T04:19:39.518Z,91.46
2019-01-27T04:20:44.571Z,91.48
2019-01-27T04:21:48.435Z,91.43
2019-01-27T04:22:52.643Z,91.38
2019-01-27T04:23:56.720Z,91.30
2019-01-27T04:25:00.962Z,91.29
2019-01-27T04:26:05.026Z,91.36
2019-01-27T04:27:09.296Z,91.35
2019-01-27T04:28:13.392Z,91.32
2019-01-27T04:29:17.633Z,91.39
2019-01-27T04:30:21.714Z,91.41
2019-01-27T04:31:25.898Z,91.44
2019-01-27T04:32:30.107Z,91.42
2019-01-27T04:33:34.238Z,91.41
2019-01-27T04:34:38.439Z,91.47
2019-01-27T04:35:42.544Z,91.45
2019-01-27T04:36:47.540Z,91.44
2019-01-27T04:37:51.302Z,91.45
2019-01-27T04:38:55.434Z,91.44
2019-01-27T04:39:59.639Z,91.36
2019-01-27T04:41:04.615Z,91.42
2019-01-27T04:42:08.445Z,91.38
2019-01-27T04:43:12.531Z,91.43
2019-01-27T04:44:16.743Z,91.37
2019-01-27T04:45:20.851Z,91.40
2019-01-27T04:46:25.115Z,91.45
2019-01-27T04:47:30.079Z,91.39
2019-01-27T04:48:33.848Z,91.43
2019-01-27T04:49:38.072Z,91.45
2019-01-27T04:50:42.248Z,91.40
2019-01-27T04:51:46.468Z,91.38
2019-01-27T04:52:50.664Z,91.41
2019-01-27T04:53:54.862Z,91.40
2019-01-27T04:54:59.048Z,91.40
2019-01-27T04:56:03.141Z,91.40
2019-01-27T04:57:07.277Z,91.41
2019-01-27T04:58:11.498Z,91.38
2019-01-27T04:59:15.597Z,91.34
2019-01-27T05:00:19.736Z,91.34
2019-01-27T05:01:23.952Z,91.32
2019-01-27T05:02:28.023Z,91.29
2019-01-27T05:03:32.299Z,91.30
2019-01-27T05:04:36.475Z,91.26
2019-01-27T05:05:43.633Z,91.26
2019-01-27T05:06:46.863Z,91.22
2019-01-27T05:07:50.949Z,91.24
2019-01-27T05:08:55.113Z,91.22
2019-01-27T05:09:59.349Z,91.33
2019-01-27T05:11:03.547Z,91.32
2019-01-27T05:12:07.625Z,91.30
2019-01-27T05:13:11.766Z,91.30
2019-01-27T05:14:15.899Z,91.28
2019-01-27T05:15:20.062Z,91.23
2019-01-27T05:16:24.267Z,91.14
2019-01-27T05:17:28.454Z,91.20
2019-01-27T05:18:32.600Z,91.22
2019-01-27T05:19:36.704Z,91.25
2019-01-27T05:20:40.856Z,91.27
2019-01-27T05:21:45.101Z,91.25
2019-01-27T05:22:49.190Z,91.21
2019-01-27T05:23:53.368Z,91.18
2019-01-27T05:24:57.524Z,91.17
2019-01-27T05:26:01.769Z,91.11
2019-01-27T05:27:05.978Z,91.13
2019-01-27T05:28:10.080Z,91.16
2019-01-27T05:29:14.316Z,91.17
2019-01-27T05:30:18.431Z,91.16
2019-01-27T05:31:22.579Z,91.14
2019-01-27T05:32:26.731Z,91.17
2019-01-27T05:33:30.846Z,91.20
2019-01-27T05:34:35.042Z,91.20
2019-01-27T05:35:39.272Z,91.15
2019-01-27T05:36:43.452Z,91.12
2019-01-27T05:37:47.663Z,91.12
2019-01-27T05:38:51.733Z,91.08
2019-01-27T05:39:56.004Z,91.07
2019-01-27T05:41:00.105Z,91.06
2019-01-27T05:42:04.263Z,91.09
2019-01-27T05:43:08.408Z,91.05
2019-01-27T05:44:12.703Z,91.12
2019-01-27T05:45:16.885Z,91.06
2019-01-27T05:46:21.070Z,90.99
2019-01-27T05:47:25.139Z,91.03
2019-01-27T05:48:29.294Z,91.08
2019-01-27T05:49:33.510Z,91.07
2019-01-27T05:50:37.753Z,91.03
2019-01-27T05:51:41.814Z,91.06
2019-01-27T05:52:45.959Z,91.06
2019-01-27T05:53:50.183Z,91.03
2019-01-27T05:54:54.283Z,91.06
2019-01-27T05:55:58.546Z,91.06
2019-01-27T05:57:02.656Z,91.04
2019-01-27T05:58:06.811Z,91.06
2019-01-27T05:59:10.992Z,91.07
2019-01-27T06:00:15.176Z,91.11
2019-01-27T06:01:22.278Z,91.14
2019-01-27T06:02:25.429Z,91.09
2019-01-27T06:03:29.544Z,91.24
2019-01-27T06:04:33.746Z,91.21
2019-01-27T06:05:37.889Z,91.24
2019-01-27T06:06:42.026Z,91.26
2019-01-27T06:07:46.171Z,91.27
2019-01-27T06:08:50.305Z,91.22
2019-01-27T06:09:54.464Z,91.16
2019-01-27T06:10:58.617Z,91.14
2019-01-27T06:12:02.861Z,91.16
2019-01-27T06:13:07.027Z,91.19
2019-01-27T06:14:11.226Z,91.19
2019-01-27T06:15:15.421Z,91.14
2019-01-27T06:16:19.511Z,91.11
2019-01-27T06:17:23.789Z,91.04
2019-01-27T06:18:27.867Z,91.11
2019-01-27T06:19:31.999Z,91.13
2019-01-27T06:20:36.193Z,91.13
2019-01-27T06:21:40.306Z,91.11
2019-01-27T06:22:44.547Z,91.07
2019-01-27T06:23:48.752Z,91.07
2019-01-27T06:24:52.836Z,91.09
2019-01-27T06:25:57.086Z,91.15
2019-01-27T06:27:01.174Z,91.17
2019-01-27T06:28:05.431Z,91.16
2019-01-27T06:29:09.626Z,91.18
2019-01-27T06:30:13.764Z,91.15
2019-01-27T06:31:17.971Z,91.20
2019-01-27T06:32:22.199Z,91.20
2019-01-27T06:33:26.351Z,91.22
2019-01-27T06:34:30.452Z,91.23
2019-01-27T06:35:34.617Z,91.22
2019-01-27T06:36:38.866Z,91.23
2019-01-27T06:37:42.996Z,91.29
2019-01-27T06:38:47.179Z,91.28
2019-01-27T06:39:51.260Z,91.28
2019-01-27T06:40:55.437Z,91.31
2019-01-27T06:41:59.553Z,91.28
2019-01-27T06:43:03.719Z,91.27
2019-01-27T06:44:07.976Z,91.28
2019-01-27T06:45:12.215Z,91.29
2019-01-27T06:46:16.292Z,91.25
2019-01-27T06:47:20.412Z,91.25
2019-01-27T06:48:24.558Z,91.20
2019-01-27T06:49:28.683Z,91.18
2019-01-27T06:50:32.989Z,91.17
2019-01-27T06:51:37.140Z,91.20
2019-01-27T06:52:41.326Z,91.14
2019-01-27T06:53:45.519Z,91.25
2019-01-27T06:54:49.791Z,91.25
2019-01-27T06:55:53.873Z,91.30
2019-01-27T06:56:58.107Z,91.23
2019-01-27T06:58:02.151Z,91.21
2019-01-27T06:59:06.393Z,91.22
2019-01-27T07:00:11.520Z,91.21
2019-01-27T07:01:15.232Z,91.21
2019-01-27T07:02:19.373Z,91.23
2019-01-27T07:03:23.644Z,91.22
2019-01-27T07:04:27.761Z,91.19
2019-01-27T07:05:31.835Z,91.23
2019-01-27T07:06:36.103Z,91.20
2019-01-27T07:07:40.277Z,91.20
2019-01-27T07:08:44.389Z,91.26
2019-01-27T07:09:49.466Z,91.27
2019-01-27T07:10:53.183Z,91.28
2019-01-27T07:11:57.455Z,91.26
2019-01-27T07:13:01.633Z,91.29
2019-01-27T07:14:05.699Z,91.28
2019-01-27T07:15:09.905Z,91.25
2019-01-27T07:16:14.087Z,91.26
2019-01-27T07:17:18.192Z,91.27
2019-01-27T07:18:22.338Z,91.30
2019-01-27T07:19:26.468Z,91.34
2019-01-27T07:20:30.617Z,91.32
2019-01-27T07:21:35.774Z,91.33
2019-01-27T07:22:39.493Z,91.30
2019-01-27T07:23:43.739Z,91.36
2019-01-27T07:24:47.749Z,91.33
2019-01-27T07:25:51.909Z,91.37
2019-01-27T07:26:56.050Z,91.40
2019-01-27T07:28:00.294Z,91.42
2019-01-27T07:29:04.410Z,91.47
2019-01-27T07:30:08.621Z,91.53
2019-01-27T07:31:12.743Z,91.42
2019-01-27T07:32:16.912Z,91.41
2019-01-27T07:33:21.040Z,91.41
2019-01-27T07:34:25.162Z,91.40
2019-01-27T07:35:29.334Z,91.44
2019-01-27T07:36:33.636Z,91.41
2019-01-27T07:37:37.814Z,91.41
2019-01-27T07:38:42.026Z,91.41
2019-01-27T07:39:49.154Z,91.43
2019-01-27T07:40:52.371Z,91.41
2019-01-27T07:41:56.542Z,91.38
2019-01-27T07:43:00.628Z,91.31
2019-01-27T07:44:03.631Z,91.32
2019-01-27T07:45:07.703Z,91.28
2019-01-27T07:46:11.828Z,91.25
2019-01-27T07:47:15.966Z,91.25
2019-01-27T07:48:20.116Z,91.25
2019-01-27T07:49:24.368Z,91.25
2019-01-27T07:50:28.564Z,91.31
2019-01-27T07:51:32.658Z,91.26
2019-01-27T07:52:36.815Z,91.32
2019-01-27T07:53:40.944Z,91.26
2019-01-27T07:54:45.096Z,91.28
2019-01-27T07:55:49.249Z,91.27
2019-01-27T07:56:53.501Z,91.25
2019-01-27T07:57:57.560Z,91.25
2019-01-27T07:59:01.741Z,91.21
2019-01-27T08:00:05.884Z,91.23
2019-01-27T08:01:10.053Z,91.25
2019-01-27T08:02:14.280Z,91.32
2019-01-27T08:03:18.451Z,91.37
2019-01-27T08:04:22.539Z,91.37
2019-01-27T08:05:27.783Z,91.33
2019-01-27T08:06:31.617Z,91.38
2019-01-27T08:07:35.763Z,91.41
2019-01-27T08:08:39.947Z,91.48
2019-01-27T08:09:44.110Z,91.48
2019-01-27T08:10:48.303Z,91.48
2019-01-27T08:11:52.421Z,91.47
2019-01-27T08:12:56.603Z,91.47
2019-01-27T08:14:00.846Z,91.46
2019-01-27T08:15:05.032Z,91.47
2019-01-27T08:16:09.247Z,91.45
2019-01-27T08:17:13.444Z,91.38
2019-01-27T08:18:17.566Z,91.39
2019-01-27T08:19:21.690Z,91.39
2019-01-27T08:20:25.950Z,91.39
2019-01-27T08:21:30.013Z,91.40
2019-01-27T08:22:34.166Z,91.34
2019-01-27T08:23:38.300Z,91.32
2019-01-27T08:24:42.428Z,91.30
2019-01-27T08:25:46.558Z,91.32
2019-01-27T08:26:50.738Z,91.29
2019-01-27T08:27:54.864Z,91.29
2019-01-27T08:28:59.017Z,91.29
2019-01-27T08:30:03.170Z,91.28
2019-01-27T08:31:07.339Z,91.23
2019-01-27T08:32:11.605Z,91.21
2019-01-27T08:33:15.836Z,91.20
2019-01-27T08:34:19.922Z,91.22
2019-01-27T08:35:24.126Z,91.20
2019-01-27T08:36:28.319Z,91.19
2019-01-27T08:37:32.383Z,91.17
2019-01-27T08:38:36.532Z,91.12
2019-01-27T08:39:40.748Z,91.14
2019-01-27T08:40:44.894Z,91.25
2019-01-27T08:41:48.988Z,91.17
2019-01-27T08:42:53.219Z,91.15
2019-01-27T08:43:57.320Z,91.16
2019-01-27T08:45:01.426Z,91.16
2019-01-27T08:46:05.604Z,91.14
2019-01-27T08:47:09.739Z,91.19
2019-01-27T08:48:13.905Z,91.22
2019-01-27T08:49:18.034Z,91.26
2019-01-27T08:50:22.319Z,91.21
2019-01-27T08:51:26.530Z,91.25
2019-01-27T08:52:30.664Z,91.26
2019-01-27T08:53:34.891Z,91.24
2019-01-27T08:54:38.978Z,91.22
2019-01-27T08:55:43.152Z,91.24
2019-01-27T08:56:47.191Z,91.21
2019-01-27T08:57:51.367Z,91.18
2019-01-27T08:58:55.619Z,91.14
2019-01-27T08:59:59.659Z,91.15
2019-01-27T09:01:03.772Z,91.16
2019-01-27T09:02:08.005Z,91.15
2019-01-27T09:03:12.105Z,91.11
2019-01-27T09:04:16.364Z,91.14
2019-01-27T09:05:20.471Z,91.13
2019-01-27T09:06:24.627Z,91.11
2019-01-27T09:07:28.678Z,91.08
2019-01-27T09:08:33.036Z,91.10
2019-01-27T09:09:37.183Z,91.11
2019-01-27T09:10:41.173Z,91.08
2019-01-27T09:11:45.496Z,91.08
2019-01-27T09:12:49.678Z,91.08
2019-01-27T09:13:53.948Z,91.08
2019-01-27T09:14:57.993Z,91.05
2019-01-27T09:16:02.234Z,91.03
2019-01-27T09:17:06.445Z,91.06
2019-01-27T09:18:13.603Z,91.06
2019-01-27T09:19:16.824Z,91.06
2019-01-27T09:20:20.955Z,91.08
2019-01-27T09:21:25.112Z,91.08
2019-01-27T09:22:29.340Z,91.05
2019-01-27T09:23:33.542Z,91.05
2019-01-27T09:24:37.737Z,91.03
2019-01-27T09:25:41.828Z,91.03
2019-01-27T09:26:45.992Z,90.99
2019-01-27T09:27:50.248Z,91.00
2019-01-27T09:28:54.328Z,91.01
2019-01-27T09:29:58.484Z,91.04
2019-01-27T09:31:02.731Z,91.02
2019-01-27T09:32:06.810Z,91.04
2019-01-27T09:33:10.981Z,91.04
2019-01-27T09:34:15.278Z,91.04
2019-01-27T09:35:19.391Z,91.05
2019-01-27T09:36:23.642Z,91.01
2019-01-27T09:37:27.838Z,90.99
2019-01-27T09:38:32.108Z,91.00
2019-01-27T09:39:36.277Z,91.06
2019-01-27T09:40:40.492Z,91.07
2019-01-27T09:41:44.747Z,91.10
2019-01-27T09:42:48.922Z,91.09
2019-01-27T09:43:53.151Z,91.14
2019-01-27T09:44:57.212Z,91.23
2019-01-27T09:46:05.469Z,91.22
2019-01-27T09:47:05.998Z,91.23
2019-01-27T09:48:10.243Z,91.33
2019-01-27T09:49:14.462Z,91.30
2019-01-27T09:50:18.654Z,91.29
2019-01-27T09:51:22.724Z,91.31
2019-01-27T09:52:26.904Z,91.27
2019-01-27T09:53:31.037Z,91.26
2019-01-27T09:54:35.303Z,91.23
2019-01-27T09:55:39.511Z,91.20
2019-01-27T09:56:43.708Z,91.18
2019-01-27T09:57:47.799Z,91.15
2019-01-27T09:58:52.088Z,91.15
2019-01-27T09:59:56.220Z,91.11
2019-01-27T10:01:00.457Z,91.12
2019-01-27T10:02:04.713Z,91.16
2019-01-27T10:03:08.878Z,91.11
2019-01-27T10:04:12.925Z,91.12
2019-01-27T10:05:17.207Z,91.13
2019-01-27T10:06:21.422Z,91.09
2019-01-27T10:07:25.531Z,91.11
2019-01-27T10:08:29.614Z,91.14
2019-01-27T10:09:33.808Z,91.16
2019-01-27T10:10:38.081Z,91.20
2019-01-27T10:11:42.253Z,91.24
2019-01-27T10:12:46.454Z,91.26
2019-01-27T10:13:50.673Z,91.26
2019-01-27T10:14:54.783Z,91.26
2019-01-27T10:15:59.088Z,91.22
2019-01-27T10:17:03.184Z,91.23
2019-01-27T10:18:07.336Z,91.26
2019-01-27T10:19:11.585Z,91.28
2019-01-27T10:20:15.708Z,91.27
2019-01-27T10:21:20.034Z,91.24
2019-01-27T10:22:24.199Z,91.21
2019-01-27T10:23:28.416Z,91.25
2019-01-27T10:24:32.670Z,91.27
2019-01-27T10:25:36.911Z,91.28
2019-01-27T10:26:41.098Z,91.29
2019-01-27T10:27:45.314Z,91.35
2019-01-27T10:28:49.521Z,91.32
2019-01-27T10:29:53.706Z,91.32
2019-01-27T10:30:57.859Z,91.27
2019-01-27T10:32:01.995Z,91.36
2019-01-27T10:33:06.117Z,91.35
2019-01-27T10:34:10.325Z,91.32
2019-01-27T10:35:14.450Z,91.37
2019-01-27T10:36:18.722Z,91.38
2019-01-27T10:37:22.812Z,91.40
2019-01-27T10:38:26.958Z,91.39
2019-01-27T10:39:31.253Z,91.33
2019-01-27T10:40:39.812Z,91.31
2019-01-27T10:41:39.642Z,91.29
2019-01-27T10:42:43.808Z,91.27
2019-01-27T10:43:47.993Z,91.31
2019-01-27T10:44:52.107Z,91.41
2019-01-27T10:45:56.362Z,91.40
2019-01-27T10:47:00.467Z,91.41
2019-01-27T10:48:04.685Z,91.39
2019-01-27T10:49:08.833Z,91.43
2019-01-27T10:50:12.970Z,91.43
2019-01-27T10:51:17.292Z,91.47
2019-01-27T10:52:21.467Z,91.48
2019-01-27T10:53:25.660Z,91.46
2019-01-27T10:54:29.764Z,91.49
2019-01-27T10:55:33.929Z,91.44
2019-01-27T10:56:38.185Z,91.44
2019-01-27T10:57:42.539Z,91.45
2019-01-27T10:58:46.545Z,91.42
2019-01-27T10:59:50.814Z,91.44
2019-01-27T11:00:54.897Z,91.47
2019-01-27T11:01:59.300Z,91.40
2019-01-27T11:03:03.443Z,91.34
2019-01-27T11:04:07.678Z,91.26
2019-01-27T11:05:11.858Z,91.22
2019-01-27T11:06:18.956Z,91.19
2019-01-27T11:07:22.234Z,91.16
2019-01-27T11:08:26.424Z,91.08
2019-01-27T11:09:30.610Z,91.05
2019-01-27T11:10:34.800Z,91.02
2019-01-27T11:11:38.933Z,91.03
2019-01-27T11:12:43.197Z,91.04
2019-01-27T11:13:47.303Z,91.04
2019-01-27T11:14:51.494Z,91.03
2019-01-27T11:15:55.740Z,91.05
2019-01-27T11:16:59.872Z,91.03
2019-01-27T11:18:03.984Z,91.01
2019-01-27T11:19:08.216Z,91.02
2019-01-27T11:20:12.415Z,91.05
2019-01-27T11:21:16.607Z,90.99
2019-01-27T11:22:20.822Z,91.03
2019-01-27T11:23:25.071Z,91.05
2019-01-27T11:24:29.155Z,91.08
2019-01-27T11:25:33.296Z,91.09
2019-01-27T11:26:37.518Z,91.09
2019-01-27T11:27:41.688Z,91.08
2019-01-27T11:28:45.877Z,91.05
2019-01-27T11:29:50.063Z,91.05
2019-01-27T11:30:54.218Z,91.06
2019-01-27T11:31:58.399Z,91.02
2019-01-27T11:33:02.682Z,91.06
2019-01-27T11:34:06.743Z,90.98
2019-01-27T11:35:10.981Z,90.99
2019-01-27T11:36:15.093Z,90.96
2019-01-27T11:37:19.302Z,90.97
2019-01-27T11:38:23.496Z,90.98
2019-01-27T11:39:27.618Z,91.00
2019-01-27T11:40:31.770Z,91.02
2019-01-27T11:41:36.006Z,91.02
2019-01-27T11:42:40.196Z,90.99
2019-01-27T11:43:44.397Z,91.00
2019-01-27T11:44:48.593Z,91.01
2019-01-27T11:45:52.745Z,90.98
2019-01-27T11:46:56.849Z,91.00
2019-01-27T11:48:01.137Z,91.02
2019-01-27T11:49:05.212Z,90.96
2019-01-27T11:50:09.433Z,90.98
2019-01-27T11:51:13.623Z,90.96
2019-01-27T11:52:17.823Z,90.99
2019-01-27T11:53:21.894Z,90.92
2019-01-27T11:54:26.033Z,90.93
2019-01-27T11:55:30.233Z,90.89
2019-01-27T11:56:34.443Z,90.90
2019-01-27T11:57:38.693Z,90.85
2019-01-27T11:58:42.922Z,90.83
2019-01-27T11:59:47.093Z,90.80
2019-01-27T12:00:51.331Z,90.78
2019-01-27T12:01:55.534Z,90.76
2019-01-27T12:02:59.730Z,90.75
2019-01-27T12:04:03.905Z,90.70
2019-01-27T12:05:08.056Z,90.71
2019-01-27T12:06:12.294Z,90.71
2019-01-27T12:07:16.491Z,90.63
2019-01-27T12:08:20.703Z,90.76
2019-01-27T12:09:24.933Z,90.77
2019-01-27T12:10:29.123Z,90.81
2019-01-27T12:11:33.341Z,90.79
2019-01-27T12:12:37.480Z,90.74
2019-01-27T12:13:41.664Z,90.75
2019-01-27T12:14:45.780Z,90.76
2019-01-27T12:15:50.057Z,90.75
2019-01-27T12:16:54.256Z,90.71
2019-01-27T12:17:58.463Z,90.71
2019-01-27T12:19:02.586Z,90.81
2019-01-27T12:20:06.842Z,90.72
2019-01-27T12:21:11.023Z,90.67
2019-01-27T12:22:15.111Z,90.63
2019-01-27T12:23:19.372Z,90.58
2019-01-27T12:24:23.590Z,90.55
2019-01-27T12:25:27.684Z,90.57
2019-01-27T12:26:31.947Z,90.67
2019-01-27T12:27:36.129Z,90.57
2019-01-27T12:28:40.356Z,90.57
2019-01-27T12:29:44.584Z,90.57
2019-01-27T12:30:48.809Z,90.56
2019-01-27T12:31:52.920Z,90.57
2019-01-27T12:32:57.054Z,90.53
2019-01-27T12:34:01.192Z,90.52
2019-01-27T12:35:05.495Z,90.47
2019-01-27T12:36:09.690Z,90.48
2019-01-27T12:37:13.809Z,90.46
2019-01-27T12:38:18.044Z,90.42
2019-01-27T12:39:22.197Z,90.42
2019-01-27T12:40:26.424Z,90.44
2019-01-27T12:41:30.580Z,90.44
2019-01-27T12:42:34.863Z,90.46
2019-01-27T12:43:39.021Z,90.46
2019-01-27T12:44:43.230Z,90.43
2019-01-27T12:45:47.321Z,90.44
2019-01-27T12:46:51.492Z,90.41
2019-01-27T12:47:55.653Z,90.42
2019-01-27T12:48:59.848Z,90.40
2019-01-27T12:50:04.006Z,90.41
2019-01-27T12:51:08.193Z,90.41
2019-01-27T12:52:12.303Z,90.40
2019-01-27T12:53:16.443Z,90.39
2019-01-27T12:54:21.496Z,90.42
2019-01-27T12:55:25.361Z,90.42
2019-01-27T12:56:29.541Z,90.42
2019-01-27T12:57:33.624Z,90.38
2019-01-27T12:58:37.851Z,90.40
2019-01-27T12:59:41.996Z,90.39
2019-01-27T13:00:46.205Z,90.39
2019-01-27T13:01:50.361Z,90.40
2019-01-27T13:02:54.524Z,90.41
2019-01-27T13:03:58.759Z,90.40
2019-01-27T13:05:02.921Z,90.37
2019-01-27T13:06:07.095Z,90.35
2019-01-27T13:07:11.310Z,90.37
2019-01-27T13:08:15.524Z,90.35
2019-01-27T13:09:19.729Z,90.34
2019-01-27T13:10:23.961Z,90.38
2019-01-27T13:11:28.146Z,90.38
2019-01-27T13:12:32.345Z,90.37
2019-01-27T13:13:36.934Z,90.36
2019-01-27T13:14:40.651Z,90.33
2019-01-27T13:15:44.839Z,90.31
2019-01-27T13:16:49.095Z,90.35
2019-01-27T13:17:53.295Z,90.33
2019-01-27T13:18:57.517Z,90.31
2019-01-27T13:20:01.711Z,90.28
2019-01-27T13:21:05.827Z,90.27
2019-01-27T13:22:12.330Z,90.23
2019-01-27T13:23:14.139Z,90.25
2019-01-27T13:24:18.401Z,90.22
2019-01-27T13:25:22.636Z,90.16
2019-01-27T13:26:26.834Z,90.14
2019-01-27T13:27:30.948Z,90.21
2019-01-27T13:28:35.107Z,90.05
2019-01-27T13:29:39.369Z,90.14
2019-01-27T13:30:43.515Z,90.12
2019-01-27T13:31:47.600Z,90.08
2019-01-27T13:32:51.826Z,90.08
2019-01-27T13:33:56.060Z,90.06
2019-01-27T13:35:00.299Z,90.06
2019-01-27T13:36:04.449Z,90.04
2019-01-27T13:37:08.549Z,90.04
2019-01-27T13:38:12.703Z,90.03
2019-01-27T13:39:16.962Z,90.03
2019-01-27T13:40:21.163Z,90.03
2019-01-27T13:41:25.407Z,90.02
2019-01-27T13:42:29.602Z,90.03
2019-01-27T13:43:33.807Z,90.03
2019-01-27T13:44:37.934Z,90.01
2019-01-27T13:45:42.238Z,90.02
2019-01-27T13:46:46.355Z,90.05
2019-01-27T13:47:50.630Z,90.05